createdAt,value
2018-07-02T00:01:30.041Z,3.80
2018-07-02T00:04:54.517Z,3.45
2018-07-02T00:08:19.171Z,4.45
2018-07-02T00:11:43.630Z,4.30
2018-07-02T00:15:08.357Z,5.00
2018-07-02T00:18:32.786Z,4.58
2018-07-02T00:21:57.298Z,5.75
2018-07-02T00:25:21.748Z,6.10
2018-07-02T00:28:46.223Z,5.65
2018-07-02T00:32:10.695Z,5.78
2018-07-02T00:35:35.302Z,5.90
2018-07-02T00:38:59.751Z,6.83
2018-07-02T00:42:24.343Z,7.28
2018-07-02T00:45:48.843Z,5.50
2018-07-02T00:49:13.312Z,7.08
2018-07-02T00:52:37.959Z,5.97
2018-07-02T00:56:02.467Z,5.92
2018-07-02T00:59:26.995Z,5.08
2018-07-02T01:02:51.532Z,6.05
2018-07-02T01:06:16.233Z,6.35
2018-07-02T01:09:40.848Z,5.20
2018-07-02T01:13:05.512Z,5.22
2018-07-02T01:16:30.060Z,5.05
2018-07-02T01:19:54.637Z,5.55
2018-07-02T01:23:19.191Z,5.25
2018-07-02T01:26:43.655Z,5.13
2018-07-02T01:30:08.270Z,5.27
2018-07-02T01:33:33.050Z,5.53
2018-07-02T01:36:57.511Z,4.73
2018-07-02T01:40:22.047Z,4.63
2018-07-02T01:43:46.591Z,5.73
2018-07-02T01:47:11.147Z,5.40
2018-07-02T01:50:35.759Z,4.93
2018-07-02T01:54:00.344Z,5.67
2018-07-02T01:57:24.981Z,6.20
2018-07-02T02:00:49.555Z,4.97
2018-07-02T02:04:14.062Z,5.73
2018-07-02T02:07:38.813Z,5.10
2018-07-02T02:11:03.350Z,5.07
2018-07-02T02:14:27.928Z,5.23
2018-07-02T02:17:52.424Z,5.27
2018-07-02T02:21:17.026Z,5.20
2018-07-02T02:24:41.605Z,4.70
2018-07-02T02:28:06.249Z,5.30
2018-07-02T02:31:30.828Z,5.50
2018-07-02T02:34:55.337Z,4.43
2018-07-02T02:38:19.925Z,4.80
2018-07-02T02:41:44.441Z,4.87
2018-07-02T02:45:09.128Z,4.53
2018-07-02T02:48:33.669Z,4.80
2018-07-02T02:51:58.277Z,5.23
2018-07-02T02:55:22.847Z,4.73
2018-07-02T02:58:47.449Z,5.17
2018-07-02T03:02:12.078Z,4.77
2018-07-02T03:05:37.166Z,5.60
2018-07-02T03:09:01.892Z,4.73
2018-07-02T03:12:26.489Z,4.47
2018-07-02T03:15:51.002Z,4.73
2018-07-02T03:19:15.537Z,4.50
2018-07-02T03:22:39.997Z,4.20
2018-07-02T03:26:04.565Z,5.10
2018-07-02T03:29:29.140Z,4.30
2018-07-02T03:32:53.711Z,4.40
2018-07-02T03:36:18.295Z,4.50
2018-07-02T03:39:42.784Z,4.30
2018-07-02T03:43:07.353Z,3.97
2018-07-02T03:46:31.883Z,4.20
2018-07-02T03:49:56.444Z,3.60
2018-07-02T03:53:21.029Z,3.73
2018-07-02T03:56:45.618Z,4.07
2018-07-02T04:00:10.324Z,3.37
2018-07-02T04:03:34.856Z,3.63
2018-07-02T04:06:59.490Z,3.47
2018-07-02T04:10:24.005Z,4.07
2018-07-02T04:13:48.615Z,3.90
2018-07-02T04:17:13.235Z,3.40
2018-07-02T04:20:37.810Z,3.40
2018-07-02T04:24:02.402Z,2.87
2018-07-02T04:27:26.915Z,3.07
2018-07-02T04:30:51.488Z,2.97
2018-07-02T04:34:16.123Z,2.80
2018-07-02T04:37:40.732Z,3.00
2018-07-02T04:41:05.359Z,2.97
2018-07-02T04:44:29.961Z,2.60
2018-07-02T04:47:54.559Z,3.03
2018-07-02T04:51:19.220Z,3.23
2018-07-02T04:54:43.633Z,3.00
2018-07-02T04:58:08.244Z,2.80
2018-07-02T05:01:32.832Z,2.30
2018-07-02T05:04:57.659Z,2.50
2018-07-02T05:08:22.652Z,3.17
2018-07-02T05:11:47.118Z,2.90
2018-07-02T05:15:11.543Z,2.67
2018-07-02T05:18:36.042Z,2.10
2018-07-02T05:22:00.576Z,2.57
2018-07-02T05:25:25.143Z,2.23
2018-07-02T05:28:49.522Z,3.10
2018-07-02T05:32:14.069Z,2.73
2018-07-02T05:35:38.522Z,2.50
2018-07-02T05:39:03.028Z,2.17
2018-07-02T05:42:27.515Z,2.33
2018-07-02T05:45:52.370Z,2.70
2018-07-02T05:49:16.830Z,2.43
2018-07-02T05:52:41.290Z,2.53
2018-07-02T05:56:05.867Z,1.98
2018-07-02T05:59:30.341Z,2.17
2018-07-02T06:02:54.890Z,1.87
2018-07-02T06:06:19.852Z,2.10
2018-07-02T06:09:44.327Z,2.20
2018-07-02T06:13:08.943Z,2.17
2018-07-02T06:16:33.465Z,2.37
2018-07-02T06:19:57.946Z,1.80
2018-07-02T06:23:22.544Z,1.95
2018-07-02T06:26:47.051Z,1.35
2018-07-02T06:30:11.594Z,2.27
2018-07-02T06:33:36.112Z,1.52
2018-07-02T06:37:00.638Z,2.05
2018-07-02T06:40:25.226Z,1.87
2018-07-02T06:43:49.738Z,2.10
2018-07-02T06:47:14.248Z,1.50
2018-07-02T06:50:38.824Z,2.12
2018-07-02T06:54:03.354Z,1.60
2018-07-02T06:57:27.924Z,2.12
2018-07-02T07:00:52.396Z,1.92
2018-07-02T07:04:17.215Z,1.52
2018-07-02T07:07:41.766Z,2.60
2018-07-02T07:11:06.361Z,2.55
2018-07-02T07:14:30.916Z,1.60
2018-07-02T07:17:55.480Z,1.70
2018-07-02T07:21:20.106Z,1.92
2018-07-02T07:24:44.646Z,1.70
2018-07-02T07:28:09.105Z,1.90
2018-07-02T07:31:33.674Z,2.05
2018-07-02T07:34:58.211Z,1.92
2018-07-02T07:38:22.738Z,1.80
2018-07-02T07:41:47.260Z,1.90
2018-07-02T07:45:11.815Z,1.67
2018-07-02T07:48:36.298Z,1.82
2018-07-02T07:52:00.771Z,1.40
2018-07-02T07:55:25.305Z,1.80
2018-07-02T07:58:49.848Z,2.12
2018-07-02T08:02:14.359Z,1.50
2018-07-02T08:05:38.787Z,1.57
2018-07-02T08:09:03.742Z,2.02
2018-07-02T08:12:28.321Z,1.52
2018-07-02T08:15:52.770Z,1.70
2018-07-02T08:19:17.257Z,1.95
2018-07-02T08:22:41.815Z,1.35
2018-07-02T08:26:06.253Z,1.57
2018-07-02T08:29:30.667Z,1.50
2018-07-02T08:32:55.248Z,1.82
2018-07-02T08:36:19.643Z,1.30
2018-07-02T08:39:44.407Z,1.52
2018-07-02T08:43:08.615Z,1.60
2018-07-02T08:46:33.159Z,1.92
2018-07-02T08:49:57.651Z,2.00
2018-07-02T08:53:22.098Z,0.93
2018-07-02T08:56:46.540Z,1.55
2018-07-02T09:00:11.019Z,1.22
2018-07-02T09:03:35.547Z,1.30
2018-07-02T09:07:00.205Z,1.00
2018-07-02T09:10:24.667Z,1.15
2018-07-02T09:13:49.161Z,1.50
2018-07-02T09:17:13.587Z,1.82
2018-07-02T09:20:38.015Z,1.50
2018-07-02T09:24:02.622Z,1.50
2018-07-02T09:27:27.188Z,1.60
2018-07-02T09:30:51.753Z,1.70
2018-07-02T09:34:16.171Z,2.02
2018-07-02T09:37:40.599Z,1.05
2018-07-02T09:41:05.058Z,1.55
2018-07-02T09:44:29.454Z,1.22
2018-07-02T09:47:54.033Z,1.40
2018-07-02T09:51:18.487Z,1.27
2018-07-02T09:54:42.893Z,1.30
2018-07-02T09:58:07.436Z,1.30
2018-07-02T10:01:31.927Z,1.42
2018-07-02T10:04:56.345Z,1.10
2018-07-02T10:08:20.777Z,1.02
2018-07-02T10:11:45.194Z,1.47
2018-07-02T10:15:09.634Z,1.30
2018-07-02T10:18:34.106Z,2.25
2018-07-02T10:21:58.568Z,1.20
2018-07-02T10:25:23.021Z,1.20
2018-07-02T10:28:47.415Z,1.50
2018-07-02T10:32:11.846Z,1.32
2018-07-02T10:35:36.259Z,1.55
2018-07-02T10:39:00.708Z,1.62
2018-07-02T10:42:25.125Z,0.90
2018-07-02T10:45:49.579Z,1.50
2018-07-02T10:49:14.021Z,1.32
2018-07-02T10:52:38.470Z,1.45
2018-07-02T10:56:03.010Z,2.12
2018-07-02T10:59:27.541Z,1.50
2018-07-02T11:02:52.376Z,1.00
2018-07-02T11:06:16.928Z,1.02
2018-07-02T11:09:41.452Z,1.60
2018-07-02T11:13:12.083Z,1.47
2018-07-02T11:16:36.708Z,1.25
2018-07-02T11:20:01.274Z,1.32
2018-07-02T11:23:25.774Z,1.30
2018-07-02T11:26:50.237Z,1.30
2018-07-02T11:30:14.731Z,1.05
2018-07-02T11:33:39.196Z,1.00
2018-07-02T11:37:03.651Z,1.30
2018-07-02T11:40:28.047Z,1.57
2018-07-02T11:43:52.509Z,1.32
2018-07-02T11:47:17.064Z,1.62
2018-07-02T11:50:41.632Z,1.00
2018-07-02T11:54:06.308Z,1.20
2018-07-02T11:57:30.937Z,1.32
2018-07-02T12:00:55.464Z,1.20
2018-07-02T12:04:20.012Z,1.50
2018-07-02T12:07:44.600Z,1.17
2018-07-02T12:11:09.114Z,1.52
2018-07-02T12:14:33.639Z,1.20
2018-07-02T12:17:58.076Z,1.20
2018-07-02T12:21:22.598Z,1.47
2018-07-02T12:24:47.100Z,1.30
2018-07-02T12:28:11.553Z,1.10
2018-07-02T12:31:35.977Z,1.25
2018-07-02T12:35:00.443Z,1.10
2018-07-02T12:38:24.898Z,1.30
2018-07-02T12:41:49.365Z,1.47
2018-07-02T12:45:13.941Z,1.30
2018-07-02T12:48:38.451Z,1.50
2018-07-02T12:52:02.867Z,1.35
2018-07-02T12:55:27.368Z,1.35
2018-07-02T12:58:51.795Z,1.50
2018-07-02T13:02:16.252Z,1.35
2018-07-02T13:05:40.670Z,1.10
2018-07-02T13:09:08.581Z,1.30
2018-07-02T13:12:33.149Z,1.35
2018-07-02T13:15:57.671Z,1.60
2018-07-02T13:19:22.674Z,1.52
2018-07-02T13:26:41.601Z,1.47
2018-07-02T13:30:06.845Z,1.52
2018-07-02T13:33:31.503Z,1.42
2018-07-02T13:36:56.074Z,1.37
2018-07-02T13:40:20.631Z,1.45
2018-07-02T13:43:45.128Z,1.42
2018-07-02T13:47:09.652Z,1.60
2018-07-02T13:50:34.269Z,1.50
2018-07-02T13:53:58.879Z,1.52
2018-07-02T13:57:23.568Z,1.50
2018-07-02T14:00:48.194Z,1.70
2018-07-02T14:04:12.752Z,2.35
2018-07-02T14:07:37.258Z,1.70
2018-07-02T14:11:01.723Z,1.32
2018-07-02T14:14:26.467Z,1.40
2018-07-02T14:17:51.001Z,1.87
2018-07-02T14:21:15.455Z,2.05
2018-07-02T14:24:40.061Z,1.92
2018-07-02T14:28:04.547Z,1.50
2018-07-02T14:31:29.076Z,1.72
2018-07-02T14:34:53.575Z,2.15
2018-07-02T14:38:18.069Z,1.50
2018-07-02T14:41:42.574Z,1.80
2018-07-02T14:45:07.473Z,2.00
2018-07-02T14:48:31.853Z,1.40
2018-07-02T14:51:56.446Z,1.47
2018-07-02T14:55:21.124Z,1.67
2018-07-02T14:58:45.645Z,1.65
2018-07-02T15:02:10.222Z,2.00
2018-07-02T15:05:34.856Z,2.15
2018-07-02T15:08:59.716Z,1.90
2018-07-02T15:12:24.443Z,2.00
2018-07-02T15:15:49.897Z,2.40
2018-07-02T15:19:14.522Z,3.80
2018-07-02T15:22:39.180Z,1.60
2018-07-02T15:26:03.897Z,1.67
2018-07-02T15:29:28.477Z,2.00
2018-07-02T15:32:53.075Z,2.00
2018-07-02T15:36:30.548Z,1.85
2018-07-02T15:39:55.856Z,1.90
2018-07-02T15:43:20.473Z,1.75
2018-07-02T15:46:45.071Z,1.60
2018-07-02T15:50:10.373Z,1.85
2018-07-02T15:53:34.913Z,1.55
2018-07-02T15:56:59.483Z,1.70
2018-07-02T16:00:24.143Z,1.70
2018-07-02T16:03:48.671Z,1.77
2018-07-02T16:07:13.407Z,2.70
2018-07-02T16:10:37.979Z,2.08
2018-07-02T16:14:02.547Z,2.95
2018-07-02T16:17:27.065Z,3.25
2018-07-02T16:20:51.737Z,2.27
2018-07-02T16:24:16.259Z,1.95
2018-07-02T16:27:40.863Z,2.08
2018-07-02T16:31:05.458Z,1.42
2018-07-02T16:34:31.074Z,1.90
2018-07-02T16:37:55.989Z,1.70
2018-07-02T16:41:20.588Z,1.52
2018-07-02T16:44:45.101Z,2.60
2018-07-02T16:48:09.614Z,1.95
2018-07-02T16:51:34.446Z,2.47
2018-07-02T16:54:58.942Z,2.15
2018-07-02T16:58:23.777Z,1.50
2018-07-02T17:01:48.516Z,4.20
2018-07-02T17:05:13.205Z,1.67
2018-07-02T17:08:37.681Z,1.77
2018-07-02T17:12:02.350Z,2.10
2018-07-02T17:15:26.860Z,1.62
2018-07-02T17:18:51.416Z,2.02
2018-07-02T17:22:15.917Z,1.45
2018-07-02T17:25:40.484Z,2.05
2018-07-02T17:29:05.109Z,1.60
2018-07-02T17:32:29.600Z,1.50
2018-07-02T17:35:54.501Z,1.62
2018-07-02T17:39:19.301Z,1.70
2018-07-02T17:42:44.070Z,1.70
2018-07-02T17:46:08.638Z,1.40
2018-07-02T17:49:33.175Z,1.62
2018-07-02T17:52:57.650Z,1.25
2018-07-02T17:56:22.437Z,1.80
2018-07-02T17:59:47.088Z,1.80
2018-07-02T18:03:11.717Z,1.72
2018-07-02T18:06:36.287Z,2.02
2018-07-02T18:10:00.918Z,2.12
2018-07-02T18:13:25.387Z,1.65
2018-07-02T18:16:49.875Z,2.22
2018-07-02T18:20:15.227Z,1.37
2018-07-02T18:23:39.707Z,1.60
2018-07-02T18:27:04.240Z,1.70
2018-07-02T18:30:28.665Z,1.52
2018-07-02T18:33:53.223Z,1.50
2018-07-02T18:37:17.637Z,1.52
2018-07-02T18:40:42.112Z,1.65
2018-07-02T18:44:07.190Z,1.87
2018-07-02T18:47:31.645Z,2.08
2018-07-02T18:50:56.087Z,2.52
2018-07-02T18:54:24.067Z,2.15
2018-07-02T18:57:48.879Z,1.37
2018-07-02T19:01:13.442Z,1.57
2018-07-02T19:04:38.882Z,1.30
2018-07-02T19:08:03.495Z,2.10
2018-07-02T19:11:28.051Z,2.00
2018-07-02T19:14:52.382Z,2.27
2018-07-02T19:18:16.883Z,1.95
2018-07-02T19:21:41.349Z,1.90
2018-07-02T19:25:08.838Z,2.12
2018-07-02T19:28:34.786Z,1.55
2018-07-02T19:31:59.706Z,1.60
2018-07-02T19:35:25.019Z,1.60
2018-07-02T19:38:50.627Z,2.08
2018-07-02T19:42:15.112Z,1.75
2018-07-02T19:45:39.607Z,1.80
2018-07-02T19:49:04.973Z,1.87
2018-07-02T19:52:30.345Z,1.72
2018-07-02T19:55:56.266Z,1.95
2018-07-02T19:59:22.642Z,1.90
2018-07-02T20:02:47.938Z,1.70
2018-07-02T20:06:13.333Z,2.15
2018-07-02T20:09:38.413Z,2.33
2018-07-02T20:13:03.965Z,2.58
2018-07-02T20:16:28.591Z,2.55
2018-07-02T20:19:53.127Z,2.72
2018-07-02T20:23:17.586Z,3.30
2018-07-02T20:26:43.089Z,3.25
2018-07-02T20:30:09.959Z,2.02
2018-07-02T20:33:35.317Z,2.25
2018-07-02T20:37:00.665Z,1.85
2018-07-02T20:40:25.271Z,1.70
2018-07-02T20:43:49.999Z,1.85
2018-07-02T20:47:14.463Z,2.45
2018-07-02T20:50:38.929Z,2.00
2018-07-02T20:54:03.492Z,2.12
2018-07-02T20:57:28.010Z,2.17
2018-07-02T21:00:52.482Z,2.40
2018-07-02T21:04:17.013Z,2.02
2018-07-02T21:07:41.591Z,2.60
2018-07-02T21:11:06.071Z,2.40
2018-07-02T21:14:30.698Z,2.75
2018-07-02T21:17:54.910Z,2.83
2018-07-02T21:21:19.457Z,3.25
2018-07-02T21:24:44.028Z,3.17
2018-07-02T21:28:08.843Z,2.67
2018-07-02T21:31:33.651Z,3.08
2018-07-02T21:34:58.351Z,3.65
2018-07-02T21:38:22.954Z,2.87
2018-07-02T21:41:47.587Z,2.87
2018-07-02T21:45:12.193Z,2.80
2018-07-02T21:48:36.711Z,2.80
2018-07-02T21:52:11.802Z,1.85
2018-07-02T21:55:36.344Z,1.80
2018-07-02T21:59:01.509Z,1.65
2018-07-02T22:02:26.089Z,1.98
2018-07-02T22:05:50.569Z,2.37
2018-07-02T22:09:15.268Z,1.45
2018-07-02T22:12:39.857Z,1.72
2018-07-02T22:16:05.035Z,1.50
2018-07-02T22:19:29.613Z,1.35
2018-07-02T22:22:54.022Z,1.82
2018-07-02T22:26:18.731Z,1.82
2018-07-02T22:29:43.717Z,1.60
2018-07-02T22:33:09.187Z,1.70
2018-07-02T22:36:33.848Z,1.90
2018-07-02T22:39:59.112Z,1.50
2018-07-02T22:43:23.787Z,1.50
2018-07-02T22:46:48.541Z,1.85
2018-07-02T22:50:13.143Z,1.52
2018-07-02T22:53:37.727Z,1.40
2018-07-02T22:57:02.229Z,1.52
2018-07-02T23:00:27.333Z,1.82
2018-07-02T23:03:52.036Z,1.70
2018-07-02T23:07:16.988Z,1.30
2018-07-02T23:10:41.492Z,1.30
2018-07-02T23:14:06.794Z,1.72
2018-07-02T23:17:31.216Z,1.60
2018-07-02T23:20:55.670Z,1.65
2018-07-02T23:24:20.170Z,1.55
2018-07-02T23:27:44.672Z,1.35
2018-07-02T23:31:09.211Z,1.65
2018-07-02T23:34:33.798Z,1.60
2018-07-02T23:37:58.309Z,1.50
2018-07-02T23:41:22.871Z,1.52
2018-07-02T23:44:47.365Z,1.65
2018-07-02T23:48:11.945Z,2.02
2018-07-02T23:51:36.489Z,1.40
2018-07-02T23:55:01.027Z,1.60
2018-07-02T23:58:26.033Z,1.42
